Time;durP1;ratioP1;P1;durP2;ratioP2;P2;SDS_P1;SDS_P2;PMS_P1;PMS_P2;Temp;Humidity;BMP_temperature;BMP_pressure;BME280_temperature;BME280_humidity;BME280_pressure;Samples;Min_cycle;Max_cycle;Signal;HPM_P1;HPM_P2
2021/08/06 00:01:44;;;;;;;3.33;1.47;;;;;;;;;;4944242;29;20047;-79
2021/08/06 00:04:10;;;;;;;2.40;1.10;;;;;;;;;;4935812;29;20321;-79
2021/08/06 00:06:35;;;;;;;2.47;1.20;;;;;;;;;;4938851;29;20028;-78
2021/08/06 00:09:00;;;;;;;3.03;1.47;;;;;;;;;;4938250;29;20279;-79
2021/08/06 00:11:29;;;;;;;3.70;1.30;;;;;;;;;;4936044;29;20031;-81
2021/08/06 00:13:55;;;;;;;1.30;1.20;;;;;;;;;;4940348;29;20119;-80
2021/08/06 00:16:20;;;;;;;1.65;1.20;;;;;;;;;;4941852;28;20110;-80
2021/08/06 00:18:45;;;;;;;2.30;1.30;;;;;;;;;;4935677;29;20019;-80
2021/08/06 00:21:11;;;;;;;4.03;1.47;;;;;;;;;;4944899;29;20366;-80
2021/08/06 00:23:36;;;;;;;3.40;1.50;;;;;;;;;;4938776;29;20303;-80
2021/08/06 00:26:01;;;;;;;6.25;1.30;;;;;;;;;;4933688;29;20739;-80
2021/08/06 00:28:26;;;;;;;3.77;1.20;;;;;;;;;;4940470;29;20039;-81
2021/08/06 00:30:52;;;;;;;1.97;1.30;;;;;;;;;;4940993;29;20275;-79
2021/08/06 00:33:17;;;;;;;4.53;2.20;;;;;;;;;;4938903;29;20114;-80
2021/08/06 00:35:43;;;;;;;2.88;1.23;;;;;;;;;;4934700;29;20263;-80
2021/08/06 00:38:08;;;;;;;1.97;1.23;;;;;;;;;;4935506;29;20104;-81
2021/08/06 00:40:33;;;;;;;4.27;1.70;;;;;;;;;;4937396;29;21016;-80
2021/08/06 00:42:59;;;;;;;2.38;1.02;;;;;;;;;;4940416;28;20292;-81
2021/08/06 00:45:24;;;;;;;1.80;1.23;;;;;;;;;;4932142;29;20026;-80
2021/08/06 00:47:49;;;;;;;4.63;1.55;;;;;;;;;;4938267;29;20275;-80
2021/08/06 00:50:14;;;;;;;3.70;1.40;;;;;;;;;;4938966;29;20068;-80
2021/08/06 00:52:40;;;;;;;2.95;1.20;;;;;;;;;;4944247;29;20266;-79
2021/08/06 00:55:06;;;;;;;1.15;0.90;;;;;;;;;;4941645;29;20470;-79
2021/08/06 00:57:32;;;;;;;3.38;1.30;;;;;;;;;;4938156;28;20402;-81
2021/08/06 00:59:57;;;;;;;3.88;1.38;;;;;;;;;;4933456;28;20020;-80
2021/08/06 01:02:23;;;;;;;5.63;1.83;;;;;;;;;;4932154;29;20042;-80
2021/08/06 01:04:51;;;;;;;5.50;1.40;;;;;;;;;;4939186;29;20031;-80
2021/08/06 01:07:19;;;;;;;4.53;1.42;;;;;;;;;;4944449;29;20390;-78
2021/08/06 01:09:48;;;;;;;3.63;1.50;;;;;;;;;;4942178;28;20077;-81
2021/08/06 01:12:22;;;;;;;4.25;1.23;;;;;;;;;;4934969;29;20032;-80
2021/08/06 01:14:49;;;;;;;1.50;1.40;;;;;;;;;;4935718;29;20670;-79
2021/08/06 01:17:15;;;;;;;2.95;1.77;;;;;;;;;;4937053;29;20057;-81
2021/08/06 01:19:51;;;;;;;1.38;1.15;;;;;;;;;;4943873;28;20023;-80
2021/08/06 01:22:26;;;;;;;1.30;1.20;;;;;;;;;;4944720;29;20495;-80
2021/08/06 01:25:01;;;;;;;5.38;1.42;;;;;;;;;;4939856;29;20364;-80
2021/08/06 01:27:27;;;;;;;3.72;1.20;;;;;;;;;;4934659;28;20046;-79
2021/08/06 01:29:52;;;;;;;1.50;1.20;;;;;;;;;;4936312;29;20383;-79
2021/08/06 01:32:18;;;;;;;3.97;1.20;;;;;;;;;;4942811;29;20024;-79
2021/08/06 01:34:43;;;;;;;1.80;0.80;;;;;;;;;;4939072;29;20111;-80
2021/08/06 01:37:08;;;;;;;1.07;1.00;;;;;;;;;;4938563;29;20303;-80
2021/08/06 01:39:34;;;;;;;4.87;1.00;;;;;;;;;;4944070;29;20315;-80
2021/08/06 01:42:05;;;;;;;3.33;1.35;;;;;;;;;;4944382;28;20266;-81
2021/08/06 01:44:43;;;;;;;4.65;1.25;;;;;;;;;;4936144;29;20142;-80
2021/08/06 01:47:11;;;;;;;4.10;1.23;;;;;;;;;;4939091;28;20031;-80
2021/08/06 01:49:50;;;;;;;2.28;1.60;;;;;;;;;;4941256;29;20406;-80
2021/08/06 01:52:18;;;;;;;3.22;1.48;;;;;;;;;;4945920;29;20085;-80
2021/08/06 01:54:44;;;;;;;1.60;1.08;;;;;;;;;;4946262;29;20031;-79
2021/08/06 01:57:10;;;;;;;4.45;1.20;;;;;;;;;;4938927;29;20479;-80
2021/08/06 01:59:37;;;;;;;5.05;1.30;;;;;;;;;;4939583;28;20426;-80
2021/08/06 02:02:02;;;;;;;2.08;1.80;;;;;;;;;;4950870;28;20374;-79
2021/08/06 02:04:28;;;;;;;4.40;1.42;;;;;;;;;;4942695;29;20028;-80
2021/08/06 02:06:53;;;;;;;2.25;1.20;;;;;;;;;;4936310;29;20114;-80
2021/08/06 02:09:19;;;;;;;5.47;1.50;;;;;;;;;;4940516;28;20063;-80
2021/08/06 02:11:45;;;;;;;1.58;1.23;;;;;;;;;;4944069;29;20471;-79
2021/08/06 02:14:11;;;;;;;2.85;1.52;;;;;;;;;;4937600;29;20058;-80
2021/08/06 02:16:37;;;;;;;1.63;1.15;;;;;;;;;;4939688;29;20048;-80
2021/08/06 02:19:03;;;;;;;1.42;1.33;;;;;;;;;;4939494;29;20024;-80
2021/08/06 02:21:30;;;;;;;1.90;1.23;;;;;;;;;;4940975;28;20690;-79
2021/08/06 02:23:58;;;;;;;2.22;1.40;;;;;;;;;;4945158;29;20442;-80
2021/08/06 02:26:24;;;;;;;2.90;1.45;;;;;;;;;;4940744;29;20368;-80
2021/08/06 02:28:50;;;;;;;2.60;1.83;;;;;;;;;;4938300;29;20114;-79
2021/08/06 02:31:16;;;;;;;3.95;1.42;;;;;;;;;;4940392;29;20528;-80
2021/08/06 02:33:42;;;;;;;3.20;1.27;;;;;;;;;;4934746;29;20032;-80
2021/08/06 02:36:07;;;;;;;4.28;1.40;;;;;;;;;;4934135;29;20060;-80
2021/08/06 02:38:34;;;;;;;4.23;1.60;;;;;;;;;;4934236;29;20020;-80
2021/08/06 02:41:02;;;;;;;4.38;1.50;;;;;;;;;;4936592;29;20264;-80
2021/08/06 02:43:27;;;;;;;1.80;1.23;;;;;;;;;;4937376;29;20027;-79
2021/08/06 02:45:52;;;;;;;3.58;1.25;;;;;;;;;;4938909;28;20367;-79
2021/08/06 02:48:18;;;;;;;3.55;1.85;;;;;;;;;;4945049;29;20031;-79
2021/08/06 02:50:43;;;;;;;1.75;1.23;;;;;;;;;;4942329;28;20027;-79
2021/08/06 02:53:09;;;;;;;2.92;1.50;;;;;;;;;;4937578;29;20030;-79
2021/08/06 02:55:34;;;;;;;3.05;1.80;;;;;;;;;;4933170;29;20070;-79
2021/08/06 02:58:00;;;;;;;1.73;1.30;;;;;;;;;;4935792;29;20186;-79
2021/08/06 03:00:25;;;;;;;4.85;1.60;;;;;;;;;;4938194;29;20015;-79
2021/08/06 03:02:50;;;;;;;2.90;1.40;;;;;;;;;;4941187;29;20028;-79
2021/08/06 03:05:15;;;;;;;3.13;1.30;;;;;;;;;;4937992;29;20044;-81
2021/08/06 03:07:46;;;;;;;2.60;1.67;;;;;;;;;;4946689;29;20110;-79
2021/08/06 03:10:11;;;;;;;5.30;1.70;;;;;;;;;;4942868;29;20442;-78
2021/08/06 03:12:37;;;;;;;2.07;1.60;;;;;;;;;;4935400;29;20047;-80
2021/08/06 03:15:02;;;;;;;4.00;1.50;;;;;;;;;;4947832;29;20072;-79
2021/08/06 03:17:27;;;;;;;2.42;1.65;;;;;;;;;;4938117;28;20524;-79
2021/08/06 03:19:52;;;;;;;3.20;1.50;;;;;;;;;;4932825;29;20028;-79
2021/08/06 03:22:18;;;;;;;7.47;1.70;;;;;;;;;;4940648;29;20784;-78
2021/08/06 03:24:43;;;;;;;3.60;1.50;;;;;;;;;;4939841;29;20026;-79
2021/08/06 03:27:08;;;;;;;2.67;1.67;;;;;;;;;;4937229;29;20264;-79
2021/08/06 03:29:33;;;;;;;2.57;1.20;;;;;;;;;;4946459;29;20757;-80
2021/08/06 03:31:59;;;;;;;2.67;1.30;;;;;;;;;;4940790;28;20888;-79
2021/08/06 03:34:24;;;;;;;4.18;1.60;;;;;;;;;;4937160;29;20628;-79
2021/08/06 03:36:49;;;;;;;2.73;1.70;;;;;;;;;;4935359;29;20020;-79
2021/08/06 03:39:15;;;;;;;3.95;1.40;;;;;;;;;;4936384;29;20270;-79
2021/08/06 03:41:40;;;;;;;4.40;1.60;;;;;;;;;;4935455;29;20020;-79
2021/08/06 03:44:05;;;;;;;3.20;1.80;;;;;;;;;;4937894;29;20267;-80
2021/08/06 03:46:30;;;;;;;3.17;1.60;;;;;;;;;;4934395;29;20426;-78
2021/08/06 03:48:56;;;;;;;4.57;1.63;;;;;;;;;;4936959;29;21058;-79
2021/08/06 03:51:21;;;;;;;4.00;1.58;;;;;;;;;;4945464;28;20028;-79
2021/08/06 03:53:46;;;;;;;2.55;1.50;;;;;;;;;;4935475;29;20091;-79
2021/08/06 03:56:12;;;;;;;2.53;1.60;;;;;;;;;;4937110;29;20122;-79
2021/08/06 03:58:37;;;;;;;2.67;1.63;;;;;;;;;;4934308;29;20012;-80
2021/08/06 04:01:02;;;;;;;6.23;1.83;;;;;;;;;;4934815;29;20020;-79
2021/08/06 04:03:27;;;;;;;2.03;1.77;;;;;;;;;;4933645;29;20090;-79
2021/08/06 04:05:53;;;;;;;3.33;1.60;;;;;;;;;;4943187;29;20591;-79
2021/08/06 04:08:18;;;;;;;3.45;1.60;;;;;;;;;;4936833;29;20158;-79
2021/08/06 04:10:43;;;;;;;2.80;2.03;;;;;;;;;;4943587;29;20068;-80
2021/08/06 04:13:09;;;;;;;5.10;1.58;;;;;;;;;;4940823;29;20262;-79
2021/08/06 04:15:34;;;;;;;3.27;1.77;;;;;;;;;;4940694;29;20024;-79
2021/08/06 04:17:59;;;;;;;2.17;1.60;;;;;;;;;;4938505;29;20263;-79
2021/08/06 04:20:24;;;;;;;4.80;1.87;;;;;;;;;;4940165;29;20322;-80
2021/08/06 04:22:50;;;;;;;5.00;1.90;;;;;;;;;;4940998;29;20038;-80
2021/08/06 04:25:15;;;;;;;4.72;1.80;;;;;;;;;;4937049;29;20102;-80
2021/08/06 04:27:40;;;;;;;2.55;1.48;;;;;;;;;;4940094;29;20059;-80
2021/08/06 04:30:07;;;;;;;4.55;2.10;;;;;;;;;;4942342;29;20030;-79
2021/08/06 04:32:32;;;;;;;3.53;1.95;;;;;;;;;;4933408;29;20486;-79
2021/08/06 04:34:58;;;;;;;2.35;1.45;;;;;;;;;;4930988;29;20024;-79
2021/08/06 04:37:23;;;;;;;6.38;1.90;;;;;;;;;;4935714;29;20019;-79
2021/08/06 04:39:48;;;;;;;2.80;1.77;;;;;;;;;;4936610;29;20118;-79
2021/08/06 04:42:14;;;;;;;2.95;1.67;;;;;;;;;;4941559;29;20722;-79
2021/08/06 04:44:40;;;;;;;3.22;2.00;;;;;;;;;;4940187;29;20020;-80
2021/08/06 04:47:05;;;;;;;2.58;1.95;;;;;;;;;;4935376;29;20020;-80
2021/08/06 04:49:31;;;;;;;3.50;2.22;;;;;;;;;;4935579;28;20031;-79
2021/08/06 04:51:56;;;;;;;3.00;2.00;;;;;;;;;;4932590;29;20082;-79
2021/08/06 04:54:21;;;;;;;3.25;2.05;;;;;;;;;;4934701;29;20024;-83
2021/08/06 04:56:47;;;;;;;5.70;2.30;;;;;;;;;;4938299;29;20047;-83
2021/08/06 04:59:12;;;;;;;6.95;2.42;;;;;;;;;;4935643;29;20337;-83
2021/08/06 05:01:37;;;;;;;3.95;2.10;;;;;;;;;;4938130;28;20022;-83
2021/08/06 05:04:03;;;;;;;5.13;2.37;;;;;;;;;;4935130;29;20034;-83
2021/08/06 05:06:28;;;;;;;3.33;2.00;;;;;;;;;;4939056;29;20334;-84
2021/08/06 05:08:54;;;;;;;4.38;2.05;;;;;;;;;;4941658;29;20031;-83
2021/08/06 05:11:19;;;;;;;3.27;2.13;;;;;;;;;;4944563;29;20027;-84
2021/08/06 05:13:44;;;;;;;4.33;2.17;;;;;;;;;;4934731;29;20280;-84
2021/08/06 05:16:09;;;;;;;4.97;2.23;;;;;;;;;;4935031;29;20268;-84
2021/08/06 05:18:35;;;;;;;10.18;1.95;;;;;;;;;;4940666;29;20023;-83
2021/08/06 05:21:00;;;;;;;5.13;2.80;;;;;;;;;;4940119;29;20521;-83
2021/08/06 05:23:26;;;;;;;4.38;2.00;;;;;;;;;;4938599;29;20498;-83
2021/08/06 05:25:51;;;;;;;4.93;2.30;;;;;;;;;;4942628;29;20030;-83
2021/08/06 05:28:17;;;;;;;6.53;3.00;;;;;;;;;;4945576;29;20038;-84
2021/08/06 05:30:42;;;;;;;2.78;2.25;;;;;;;;;;4938636;29;20023;-81
2021/08/06 05:33:07;;;;;;;3.60;2.00;;;;;;;;;;4939494;29;20027;-85
2021/08/06 05:35:33;;;;;;;3.37;2.07;;;;;;;;;;4948122;29;20030;-85
2021/08/06 05:37:58;;;;;;;3.53;1.97;;;;;;;;;;4938840;29;20343;-84
2021/08/06 05:40:23;;;;;;;4.87;2.10;;;;;;;;;;4947520;29;20302;-84
2021/08/06 05:42:48;;;;;;;3.77;2.43;;;;;;;;;;4930124;29;20311;-84
2021/08/06 05:45:14;;;;;;;3.38;1.95;;;;;;;;;;4933926;28;20275;-84
2021/08/06 05:47:43;;;;;;;4.23;2.30;;;;;;;;;;4931124;29;20024;-83
2021/08/06 05:50:09;;;;;;;6.88;2.08;;;;;;;;;;4932512;29;20626;-84
2021/08/06 05:52:34;;;;;;;19.13;11.27;;;;;;;;;;4930478;29;20035;-79
2021/08/06 05:54:59;;;;;;;16.23;13.60;;;;;;;;;;4924857;29;20111;-82
2021/08/06 05:57:24;;;;;;;6.80;4.60;;;;;;;;;;4919245;29;20028;-81
2021/08/06 05:59:50;;;;;;;5.63;2.70;;;;;;;;;;4932080;29;20022;-81
2021/08/06 06:02:15;;;;;;;6.13;2.40;;;;;;;;;;4927630;29;20346;-80
2021/08/06 06:04:40;;;;;;;4.07;2.37;;;;;;;;;;4935063;29;20299;-80
2021/08/06 06:07:06;;;;;;;3.83;2.13;;;;;;;;;;4934815;29;20266;-82
2021/08/06 06:09:31;;;;;;;4.87;2.40;;;;;;;;;;4938397;29;20027;-79
2021/08/06 06:11:56;;;;;;;5.03;2.97;;;;;;;;;;4939190;29;20267;-81
2021/08/06 06:14:21;;;;;;;3.20;2.30;;;;;;;;;;4934086;29;20316;-81
2021/08/06 06:16:46;;;;;;;3.97;2.60;;;;;;;;;;4935992;29;20794;-81
2021/08/06 06:19:12;;;;;;;3.58;2.30;;;;;;;;;;4934744;28;20008;-83
2021/08/06 06:21:37;;;;;;;3.70;2.47;;;;;;;;;;4930787;29;20018;-80
2021/08/06 06:24:03;;;;;;;4.35;2.17;;;;;;;;;;4935296;29;20036;-80
2021/08/06 06:26:28;;;;;;;9.70;6.45;;;;;;;;;;4937240;29;20015;-81
2021/08/06 06:28:53;;;;;;;10.30;5.18;;;;;;;;;;4934144;29;20441;-81
2021/08/06 06:31:19;;;;;;;3.50;2.37;;;;;;;;;;4934458;29;20466;-81
2021/08/06 06:33:44;;;;;;;4.93;2.38;;;;;;;;;;4938219;29;20023;-82
2021/08/06 06:36:09;;;;;;;3.30;2.33;;;;;;;;;;4935687;29;20074;-82
2021/08/06 06:38:35;;;;;;;4.00;2.58;;;;;;;;;;4934726;29;20098;-82
2021/08/06 06:41:00;;;;;;;3.58;2.03;;;;;;;;;;4934392;29;20079;-82
2021/08/06 06:43:25;;;;;;;5.32;2.30;;;;;;;;;;4938909;29;20031;-84
2021/08/06 06:45:51;;;;;;;8.73;2.00;;;;;;;;;;4935569;29;20505;-81
2021/08/06 06:48:16;;;;;;;4.72;2.30;;;;;;;;;;4941590;29;20271;-81
2021/08/06 06:50:44;;;;;;;4.20;2.25;;;;;;;;;;4935494;29;20024;-81
2021/08/06 06:53:09;;;;;;;4.68;2.28;;;;;;;;;;4938890;29;20336;-81
2021/08/06 06:55:34;;;;;;;3.43;2.13;;;;;;;;;;4949209;29;20117;-83
2021/08/06 06:58:00;;;;;;;2.90;1.90;;;;;;;;;;4938622;29;20287;-81
2021/08/06 07:00:27;;;;;;;4.75;2.40;;;;;;;;;;4937235;28;20031;-81
2021/08/06 07:02:53;;;;;;;2.88;1.92;;;;;;;;;;4932727;29;20721;-81
2021/08/06 07:05:18;;;;;;;7.00;4.32;;;;;;;;;;4934085;29;20055;-83
2021/08/06 07:07:43;;;;;;;6.55;4.43;;;;;;;;;;4933793;29;20020;-83
2021/08/06 07:10:09;;;;;;;2.37;1.90;;;;;;;;;;4928238;29;20022;-82
2021/08/06 07:12:36;;;;;;;3.17;1.60;;;;;;;;;;4941805;29;20818;-82
2021/08/06 07:15:04;;;;;;;3.85;1.55;;;;;;;;;;4940143;28;20032;-82
2021/08/06 07:17:32;;;;;;;1.85;1.55;;;;;;;;;;4942210;28;20620;-83
2021/08/06 07:19:57;;;;;;;2.65;1.50;;;;;;;;;;4935341;29;20709;-82
2021/08/06 07:22:23;;;;;;;4.72;1.60;;;;;;;;;;4935715;29;20074;-82
2021/08/06 07:24:48;;;;;;;4.07;1.92;;;;;;;;;;4944570;29;20038;-82
2021/08/06 07:27:13;;;;;;;5.13;1.98;;;;;;;;;;4934983;29;20031;-83
2021/08/06 07:29:38;;;;;;;2.13;1.80;;;;;;;;;;4938089;29;20138;-81
2021/08/06 07:32:04;;;;;;;5.15;1.77;;;;;;;;;;4935688;28;20267;-83
2021/08/06 07:34:29;;;;;;;2.40;1.75;;;;;;;;;;4931960;29;20050;-81
2021/08/06 07:36:54;;;;;;;2.90;1.85;;;;;;;;;;4931832;29;20629;-81
2021/08/06 07:39:20;;;;;;;3.87;1.67;;;;;;;;;;4942891;29;20114;-81
2021/08/06 07:41:45;;;;;;;2.22;1.30;;;;;;;;;;4935601;29;20358;-80
2021/08/06 07:44:10;;;;;;;12.27;9.87;;;;;;;;;;4943063;29;20083;-81
2021/08/06 07:46:36;;;;;;;4.53;3.33;;;;;;;;;;4935151;29;20256;-81
2021/08/06 07:49:01;;;;;;;3.17;1.70;;;;;;;;;;4948425;28;20267;-80
2021/08/06 07:51:26;;;;;;;3.55;1.50;;;;;;;;;;4942749;28;20027;-81
2021/08/06 07:53:52;;;;;;;2.53;1.50;;;;;;;;;;4938160;29;20029;-80
2021/08/06 07:56:17;;;;;;;6.93;2.43;;;;;;;;;;4948139;29;20714;-80
2021/08/06 07:58:42;;;;;;;5.97;2.00;;;;;;;;;;4949203;28;20026;-81
2021/08/06 08:01:08;;;;;;;2.10;1.50;;;;;;;;;;4939827;28;20288;-81
2021/08/06 08:03:33;;;;;;;3.27;1.73;;;;;;;;;;4935732;29;20083;-82
2021/08/06 08:06:00;;;;;;;2.93;1.30;;;;;;;;;;4936672;29;20271;-81
2021/08/06 08:08:25;;;;;;;2.08;1.20;;;;;;;;;;4936561;29;20030;-81
2021/08/06 08:10:50;;;;;;;2.27;1.07;;;;;;;;;;4944592;29;20106;-81
2021/08/06 08:13:16;;;;;;;3.17;1.20;;;;;;;;;;4926612;29;20020;-81
2021/08/06 08:15:41;;;;;;;2.90;1.33;;;;;;;;;;4947820;29;20023;-81
2021/08/06 08:18:07;;;;;;;1.48;1.15;;;;;;;;;;4949484;28;20062;-81
2021/08/06 08:20:32;;;;;;;1.25;1.05;;;;;;;;;;4940416;29;20020;-81
2021/08/06 08:22:58;;;;;;;1.90;1.10;;;;;;;;;;4940868;28;20028;-81
2021/08/06 08:25:23;;;;;;;2.20;1.23;;;;;;;;;;4945393;29;20107;-81
2021/08/06 08:27:48;;;;;;;1.60;1.00;;;;;;;;;;4931464;29;20054;-79
2021/08/06 08:30:13;;;;;;;3.33;1.17;;;;;;;;;;4931653;29;20264;-81
2021/08/06 08:32:39;;;;;;;4.07;1.03;;;;;;;;;;4939118;29;20023;-80
2021/08/06 08:35:05;;;;;;;2.03;1.23;;;;;;;;;;4938066;29;20271;-80
2021/08/06 08:37:30;;;;;;;13.43;8.55;;;;;;;;;;4932484;29;20427;-81
2021/08/06 08:39:56;;;;;;;7.20;4.72;;;;;;;;;;4945089;29;20016;-81
2021/08/06 08:42:21;;;;;;;2.50;1.40;;;;;;;;;;4947428;29;20064;-81
2021/08/06 08:44:47;;;;;;;2.47;1.25;;;;;;;;;;4936703;29;20032;-81
2021/08/06 08:47:13;;;;;;;3.45;1.08;;;;;;;;;;4934051;28;20038;-80
2021/08/06 08:49:39;;;;;;;2.75;1.20;;;;;;;;;;4941533;28;20431;-81
2021/08/06 08:52:04;;;;;;;1.52;1.00;;;;;;;;;;4936696;29;20124;-80
2021/08/06 08:54:30;;;;;;;1.67;1.00;;;;;;;;;;4945272;29;20107;-80
2021/08/06 08:56:55;;;;;;;2.17;1.20;;;;;;;;;;4936133;29;20043;-81
2021/08/06 08:59:21;;;;;;;1.23;1.10;;;;;;;;;;4937529;29;20190;-83
2021/08/06 09:01:46;;;;;;;3.60;1.08;;;;;;;;;;4943381;29;20019;-81
2021/08/06 09:04:28;;;;;;;2.33;1.10;;;;;;;;;;4940478;29;20694;-81
2021/08/06 09:06:54;;;;;;;2.60;1.15;;;;;;;;;;4935959;29;20637;-81
2021/08/06 09:09:21;;;;;;;2.97;1.83;;;;;;;;;;4944236;28;20030;-81
2021/08/06 09:11:47;;;;;;;5.13;1.85;;;;;;;;;;4939085;28;20378;-81
2021/08/06 09:14:15;;;;;;;4.47;2.08;;;;;;;;;;4941930;28;20217;-81
2021/08/06 09:17:01;;;;;;;2.20;1.20;;;;;;;;;;4950870;29;20049;-81
2021/08/06 09:19:28;;;;;;;2.05;1.40;;;;;;;;;;4941555;29;20123;-81
2021/08/06 09:22:13;;;;;;;3.45;1.10;;;;;;;;;;4949877;29;20685;-80
2021/08/06 09:24:57;;;;;;;2.85;0.88;;;;;;;;;;4949638;28;20375;-82
2021/08/06 09:27:22;;;;;;;1.80;1.10;;;;;;;;;;4938002;29;20027;-80
2021/08/06 09:29:47;;;;;;;4.03;1.23;;;;;;;;;;4944378;29;20027;-81
2021/08/06 09:32:13;;;;;;;3.07;1.40;;;;;;;;;;4938562;29;20260;-80
2021/08/06 09:34:42;;;;;;;4.75;2.25;;;;;;;;;;4941733;29;20390;-81
2021/08/06 09:37:07;;;;;;;4.57;1.05;;;;;;;;;;4944702;28;20421;-80
2021/08/06 09:39:37;;;;;;;3.25;1.25;;;;;;;;;;4945022;29;20083;-81
2021/08/06 09:42:03;;;;;;;2.47;1.02;;;;;;;;;;4949523;29;20334;-80
2021/08/06 09:44:30;;;;;;;1.58;1.20;;;;;;;;;;4940811;28;20444;-81
2021/08/06 09:46:57;;;;;;;2.92;1.10;;;;;;;;;;4937817;29;20027;-81
2021/08/06 09:49:23;;;;;;;1.90;1.25;;;;;;;;;;4935016;29;20453;-81
2021/08/06 09:51:50;;;;;;;3.30;1.77;;;;;;;;;;4951522;29;20423;-81
2021/08/06 09:54:19;;;;;;;2.55;1.20;;;;;;;;;;4952752;28;20055;-81
2021/08/06 09:56:45;;;;;;;1.92;1.40;;;;;;;;;;4944094;28;20537;-81
2021/08/06 09:59:11;;;;;;;2.55;1.35;;;;;;;;;;4939688;29;20622;-81
2021/08/06 10:01:36;;;;;;;2.58;1.08;;;;;;;;;;4942463;28;20055;-81
2021/08/06 10:04:12;;;;;;;3.97;1.17;;;;;;;;;;4940158;29;20043;-81
2021/08/06 10:06:38;;;;;;;1.50;1.10;;;;;;;;;;4942715;29;20426;-81
2021/08/06 10:09:03;;;;;;;4.68;1.13;;;;;;;;;;4945343;29;20122;-82
2021/08/06 10:11:29;;;;;;;6.38;3.40;;;;;;;;;;4931559;28;20070;-83
2021/08/06 10:13:54;;;;;;;3.90;1.90;;;;;;;;;;4938773;29;20639;-82
2021/08/06 10:16:19;;;;;;;4.85;1.73;;;;;;;;;;4942917;29;20027;-82
2021/08/06 10:18:44;;;;;;;7.63;2.13;;;;;;;;;;4926326;29;20612;-82
2021/08/06 10:21:10;;;;;;;4.47;1.98;;;;;;;;;;4918546;29;20264;-81
2021/08/06 10:23:35;;;;;;;2.88;1.50;;;;;;;;;;4935764;29;20057;-81
2021/08/06 10:26:01;;;;;;;3.30;1.40;;;;;;;;;;4934701;29;20106;-85
2021/08/06 10:28:27;;;;;;;3.63;1.52;;;;;;;;;;4936969;29;20302;-83
2021/08/06 10:31:12;;;;;;;2.95;1.48;;;;;;;;;;4936002;29;20522;-80
2021/08/06 10:33:57;;;;;;;2.65;1.20;;;;;;;;;;4937143;29;20365;-83
2021/08/06 10:36:43;;;;;;;4.75;1.40;;;;;;;;;;4933442;29;20414;-82
2021/08/06 10:39:27;;;;;;;4.72;1.85;;;;;;;;;;4934257;29;20427;-83
2021/08/06 10:41:53;;;;;;;3.22;1.77;;;;;;;;;;4942774;29;20848;-81
2021/08/06 10:44:18;;;;;;;3.38;1.67;;;;;;;;;;4938133;29;20210;-82
2021/08/06 10:47:10;;;;;;;2.97;1.75;;;;;;;;;;4940831;29;20043;-82
2021/08/06 10:49:35;;;;;;;3.42;1.90;;;;;;;;;;4935462;28;20039;-79
2021/08/06 10:52:09;;;;;;;2.78;1.83;;;;;;;;;;4941075;28;20399;-80
2021/08/06 10:54:34;;;;;;;2.83;1.40;;;;;;;;;;4929955;29;20696;-78
2021/08/06 10:57:12;;;;;;;4.25;1.90;;;;;;;;;;4937775;29;20053;-79
2021/08/06 10:59:39;;;;;;;2.92;1.80;;;;;;;;;;4933514;29;20244;-79
2021/08/06 11:02:04;;;;;;;1.85;1.30;;;;;;;;;;4930029;29;20079;-79
2021/08/06 11:04:29;;;;;;;2.80;1.60;;;;;;;;;;4932451;29;20530;-79
2021/08/06 11:06:55;;;;;;;6.40;1.50;;;;;;;;;;4935258;29;20291;-78
2021/08/06 11:09:23;;;;;;;2.45;1.15;;;;;;;;;;4933817;29;20031;-80
2021/08/06 11:12:05;;;;;;;3.85;1.20;;;;;;;;;;4933642;29;20046;-80
2021/08/06 11:14:39;;;;;;;2.42;1.10;;;;;;;;;;4931722;29;20427;-79
2021/08/06 11:17:17;;;;;;;2.90;1.35;;;;;;;;;;4933298;29;20384;-79
2021/08/06 11:19:44;;;;;;;3.55;1.27;;;;;;;;;;4934085;29;20035;-78
2021/08/06 11:22:28;;;;;;;1.52;1.05;;;;;;;;;;4935869;28;20037;-80
2021/08/06 11:25:00;;;;;;;3.33;1.80;;;;;;;;;;4934104;29;20368;-78
2021/08/06 11:27:51;;;;;;;4.30;1.45;;;;;;;;;;4932666;29;20536;-79
2021/08/06 11:30:19;;;;;;;2.33;1.30;;;;;;;;;;4931454;29;20206;-79
2021/08/06 11:33:03;;;;;;;2.20;1.20;;;;;;;;;;4936169;29;20475;-79
2021/08/06 11:35:32;;;;;;;4.63;1.50;;;;;;;;;;4932343;29;20199;-79
2021/08/06 11:38:00;;;;;;;4.35;1.65;;;;;;;;;;4934847;29;20206;-80
2021/08/06 11:40:35;;;;;;;3.38;1.80;;;;;;;;;;4934871;29;20031;-78
2021/08/06 11:43:20;;;;;;;2.25;1.20;;;;;;;;;;4932623;29;20504;-80
2021/08/06 11:45:46;;;;;;;3.08;1.00;;;;;;;;;;4931842;29;20383;-80
2021/08/06 11:48:12;;;;;;;1.67;1.10;;;;;;;;;;4936128;29;20655;-81
2021/08/06 11:50:39;;;;;;;1.73;0.93;;;;;;;;;;4932837;29;20143;-78
2021/08/06 11:53:13;;;;;;;2.05;1.27;;;;;;;;;;4937640;29;20657;-80
2021/08/06 11:55:38;;;;;;;1.23;1.00;;;;;;;;;;4934840;29;20454;-78
2021/08/06 11:58:04;;;;;;;3.83;1.38;;;;;;;;;;4937854;29;20023;-79
2021/08/06 12:00:30;;;;;;;1.90;1.55;;;;;;;;;;4935492;29;20019;-80
2021/08/06 12:02:59;;;;;;;2.33;1.08;;;;;;;;;;4940993;29;20355;-80
2021/08/06 12:05:24;;;;;;;3.03;1.25;;;;;;;;;;4935376;29;20382;-79
2021/08/06 12:07:49;;;;;;;2.78;1.48;;;;;;;;;;4934244;29;20023;-79
2021/08/06 12:10:15;;;;;;;1.23;1.00;;;;;;;;;;4943886;29;20055;-79
2021/08/06 12:12:40;;;;;;;1.63;1.40;;;;;;;;;;4935220;29;20259;-80
2021/08/06 12:15:22;;;;;;;2.22;1.15;;;;;;;;;;4939586;29;20065;-80
2021/08/06 12:17:47;;;;;;;4.60;1.30;;;;;;;;;;4934905;29;20480;-80
2021/08/06 12:20:12;;;;;;;4.05;1.00;;;;;;;;;;4933018;29;20028;-79
2021/08/06 12:22:41;;;;;;;4.97;1.20;;;;;;;;;;4937821;29;20027;-79
2021/08/06 12:25:13;;;;;;;3.22;1.13;;;;;;;;;;4932958;29;20279;-80
2021/08/06 12:27:38;;;;;;;2.88;1.23;;;;;;;;;;4941339;29;20023;-80
2021/08/06 12:30:23;;;;;;;2.90;1.43;;;;;;;;;;4930016;29;20022;-78
2021/08/06 12:32:48;;;;;;;4.72;1.55;;;;;;;;;;4934734;29;20438;-79
2021/08/06 12:35:20;;;;;;;3.33;1.00;;;;;;;;;;4940575;29;20055;-79
2021/08/06 12:37:45;;;;;;;3.08;1.25;;;;;;;;;;4932866;29;20370;-79
2021/08/06 12:40:11;;;;;;;3.38;1.10;;;;;;;;;;4940977;29;20031;-79
2021/08/06 12:42:37;;;;;;;1.85;1.30;;;;;;;;;;4937816;28;20110;-78
2021/08/06 12:45:05;;;;;;;2.05;1.05;;;;;;;;;;4937410;29;20027;-80
2021/08/06 12:47:44;;;;;;;3.63;1.52;;;;;;;;;;4939009;29;20443;-78
2021/08/06 12:50:10;;;;;;;13.07;10.40;;;;;;;;;;4931605;29;20363;-78
2021/08/06 12:52:37;;;;;;;3.08;1.60;;;;;;;;;;4932195;29;20058;-80
2021/08/06 12:55:06;;;;;;;2.17;1.20;;;;;;;;;;4932924;29;20734;-81
2021/08/06 12:57:47;;;;;;;2.60;1.13;;;;;;;;;;4940788;29;20580;-81
2021/08/06 13:00:12;;;;;;;2.20;1.00;;;;;;;;;;4936362;29;20036;-81
2021/08/06 13:02:37;;;;;;;1.92;1.00;;;;;;;;;;4932234;29;20031;-78
2021/08/06 13:05:06;;;;;;;2.80;1.40;;;;;;;;;;4932166;29;20038;-78
2021/08/06 13:07:31;;;;;;;3.47;1.25;;;;;;;;;;4931647;29;20027;-79
2021/08/06 13:10:00;;;;;;;3.00;1.10;;;;;;;;;;4932180;29;20528;-79
2021/08/06 13:12:25;;;;;;;2.95;1.25;;;;;;;;;;4934641;29;20031;-78
2021/08/06 13:14:51;;;;;;;2.45;1.20;;;;;;;;;;4931965;29;20032;-80
2021/08/06 13:17:17;;;;;;;1.98;1.13;;;;;;;;;;4938821;29;20111;-79
2021/08/06 13:19:43;;;;;;;2.17;1.15;;;;;;;;;;4936655;29;20446;-79
2021/08/06 13:22:09;;;;;;;2.42;1.20;;;;;;;;;;4929626;28;20032;-80
2021/08/06 13:24:35;;;;;;;3.40;1.25;;;;;;;;;;4933435;29;20424;-80
2021/08/06 13:27:00;;;;;;;1.70;1.10;;;;;;;;;;4935583;29;20120;-81
2021/08/06 13:29:26;;;;;;;1.58;0.90;;;;;;;;;;4935261;29;20016;-80
2021/08/06 13:31:51;;;;;;;3.58;1.52;;;;;;;;;;4936471;28;20040;-80
2021/08/06 13:34:17;;;;;;;6.55;1.40;;;;;;;;;;4940323;29;20016;-79
2021/08/06 13:36:42;;;;;;;2.55;1.50;;;;;;;;;;4938480;29;20043;-80
2021/08/06 13:39:08;;;;;;;4.75;1.20;;;;;;;;;;4943873;29;20035;-80
2021/08/06 13:41:33;;;;;;;2.65;1.20;;;;;;;;;;4938729;29;20016;-79
2021/08/06 13:43:58;;;;;;;2.83;1.33;;;;;;;;;;4935416;29;20051;-80
2021/08/06 13:46:24;;;;;;;3.45;2.03;;;;;;;;;;4939522;29;20323;-80
2021/08/06 13:48:49;;;;;;;5.28;2.33;;;;;;;;;;4943443;29;20026;-80
2021/08/06 13:51:14;;;;;;;10.25;2.40;;;;;;;;;;4945109;29;20635;-80
2021/08/06 13:53:40;;;;;;;2.45;1.27;;;;;;;;;;4938699;29;20082;-80
2021/08/06 13:56:05;;;;;;;1.87;1.30;;;;;;;;;;4942469;29;20048;-80
2021/08/06 13:58:30;;;;;;;2.35;1.30;;;;;;;;;;4941455;29;20102;-79
2021/08/06 14:00:56;;;;;;;2.42;1.30;;;;;;;;;;4935703;29;20062;-80
2021/08/06 14:03:21;;;;;;;5.40;1.40;;;;;;;;;;4931353;29;20047;-79
2021/08/06 14:05:46;;;;;;;3.58;1.33;;;;;;;;;;4934660;29;20020;-79
2021/08/06 14:08:12;;;;;;;3.83;1.50;;;;;;;;;;4935984;29;20051;-79
2021/08/06 14:10:37;;;;;;;2.00;1.17;;;;;;;;;;4935021;29;20030;-79
2021/08/06 14:13:02;;;;;;;3.80;1.70;;;;;;;;;;4934169;29;20023;-80
2021/08/06 14:15:28;;;;;;;2.70;1.20;;;;;;;;;;4933945;29;20074;-80
2021/08/06 14:17:55;;;;;;;4.07;2.03;;;;;;;;;;4935434;29;20110;-80
2021/08/06 14:20:20;;;;;;;2.92;1.40;;;;;;;;;;4934137;29;20020;-79
2021/08/06 14:22:46;;;;;;;12.55;8.10;;;;;;;;;;4934441;29;20497;-81
2021/08/06 14:25:11;;;;;;;26.75;22.23;;;;;;;;;;4935574;29;20024;-80
2021/08/06 14:27:39;;;;;;;4.55;2.45;;;;;;;;;;4932013;29;20032;-82
2021/08/06 14:30:05;;;;;;;2.60;1.30;;;;;;;;;;4933858;29;20023;-80
2021/08/06 14:32:30;;;;;;;3.58;1.17;;;;;;;;;;4933889;29;20517;-80
2021/08/06 14:34:55;;;;;;;2.83;1.17;;;;;;;;;;4930081;29;20503;-81
2021/08/06 14:37:21;;;;;;;1.00;0.90;;;;;;;;;;4929612;29;20023;-81
2021/08/06 14:39:46;;;;;;;1.33;1.10;;;;;;;;;;4933699;29;20031;-81
2021/08/06 14:42:11;;;;;;;3.23;1.20;;;;;;;;;;4933087;29;20270;-81